Broadmoor, Illinois
Current Conditions -  °F | °C
As of 7:15 PM on Tuesday 21 Oct 2014 (Local Time) from KC75 Reporting Station
Clear Clear  
Wind Chill:   Ceiling: Unl
Heat Index:   Visibility: 10mi
Dew Point:   Wind: 3mph
Humidity: 70%   Direction: 80°E
Pressure: 30.21"   Gusts: NA
Location:  41.1472°N, 89.6399°W
Report Text: KC75 220015Z AUTO 08003KT 10SM CLR 08/03 A3021 RMK AO2 T00820031
Loading
Personal Weather Stations






























Interactive Weather Map
Tropical Storm Tracking
New forecast layout! Learn more

10-Day Weather Forecast

Advertisements
Track Severe Weather on mobile